Time;durP1;ratioP1;P1;durP2;ratioP2;P2;SDS_P1;SDS_P2;PMS_P1;PMS_P2;Temp;Humidity;BMP_temperature;BMP_pressure;BME280_temperature;BME280_humidity;BME280_pressure;Samples;Min_cycle;Max_cycle;Signal;HPM_P1;HPM_P2
2023/10/25 00:00:48;;;;;;;6.55;3.13;;;;;;;9.11;100.00;99910.69;4993809;28;20069;-56
2023/10/25 00:03:14;;;;;;;8.55;2.83;;;;;;;9.34;100.00;99949.16;4993235;28;20030;-54
2023/10/25 00:05:39;;;;;;;9.20;3.60;;;;;;;9.32;100.00;99953.59;4993193;28;20112;-54
2023/10/25 00:08:05;;;;;;;7.28;3.72;;;;;;;9.25;100.00;99939.00;4989942;28;20073;-58
2023/10/25 00:10:30;;;;;;;6.30;4.03;;;;;;;9.26;100.00;99940.69;4992816;28;20570;-54
2023/10/25 00:12:56;;;;;;;8.90;4.88;;;;;;;8.99;100.00;99905.91;4993311;28;20464;-55
2023/10/25 00:15:24;;;;;;;10.48;4.55;;;;;;;9.18;100.00;99942.78;4993060;28;20462;-55
2023/10/25 00:17:49;;;;;;;9.52;4.38;;;;;;;8.77;100.00;99876.22;4975597;28;20509;-54
2023/10/25 00:20:14;;;;;;;7.15;4.57;;;;;;;8.83;100.00;99887.34;4988629;28;20051;-56
2023/10/25 00:22:40;;;;;;;10.18;5.15;;;;;;;9.15;100.00;99941.16;4972264;28;20042;-58
2023/10/25 00:25:05;;;;;;;11.00;5.32;;;;;;;9.22;100.00;99941.78;4972209;28;20030;-55
2023/10/25 00:27:31;;;;;;;10.63;5.28;;;;;;;8.82;100.00;99869.88;4972113;28;20487;-57
2023/10/25 00:29:56;;;;;;;8.27;5.80;;;;;;;9.04;100.00;99911.88;4973373;28;20445;-58
2023/10/25 00:32:21;;;;;;;11.85;5.18;;;;;;;9.17;100.00;99944.56;4988545;28;20093;-55
2023/10/25 00:34:47;;;;;;;11.70;6.10;;;;;;;9.11;100.00;99936.94;4973140;28;20034;-55
2023/10/25 00:37:12;;;;;;;12.00;6.43;;;;;;;9.00;100.00;99941.78;4971824;28;20042;-53
2023/10/25 00:39:37;;;;;;;10.88;6.38;;;;;;;8.79;100.00;99914.59;4973329;28;20122;-53
2023/10/25 00:42:03;;;;;;;12.98;6.35;;;;;;;8.83;100.00;99942.44;4988526;28;20509;-54
2023/10/25 00:44:28;;;;;;;15.05;7.28;;;;;;;8.78;100.00;99949.66;4972845;28;20050;-53
2023/10/25 00:46:54;;;;;;;11.77;7.05;;;;;;;8.66;100.00;99920.41;4972928;28;20034;-55
2023/10/25 00:49:20;;;;;;;10.98;7.03;;;;;;;8.52;100.00;99904.34;4988266;28;20034;-53
2023/10/25 00:51:46;;;;;;;15.57;7.60;;;;;;;8.68;100.00;99937.78;4987925;28;20038;-55
2023/10/25 00:54:11;;;;;;;11.80;7.40;;;;;;;8.26;100.00;99858.13;4973122;28;20085;-55
2023/10/25 00:56:37;;;;;;;11.63;7.82;;;;;;;8.50;100.00;99930.63;4972941;28;20118;-51
2023/10/25 00:59:03;;;;;;;18.05;8.43;;;;;;;8.45;100.00;99914.22;4971423;28;20113;-54
2023/10/25 01:01:29;;;;;;;17.73;9.18;;;;;;;8.51;100.00;99927.09;4972822;28;20171;-54
2023/10/25 01:03:54;;;;;;;15.20;8.40;;;;;;;8.16;100.00;99862.00;4973077;28;20409;-56
2023/10/25 01:06:20;;;;;;;15.48;9.38;;;;;;;8.56;100.00;99916.41;4972927;28;20039;-54
2023/10/25 01:08:45;;;;;;;15.48;8.65;;;;;;;8.24;100.00;99862.56;4972855;28;20027;-54
2023/10/25 01:11:11;;;;;;;16.42;9.40;;;;;;;8.21;100.00;99841.69;4972941;28;20031;-54
2023/10/25 01:13:37;;;;;;;15.20;8.82;;;;;;;8.21;100.00;99847.81;4987798;28;20199;-56
2023/10/25 01:16:02;;;;;;;16.17;9.35;;;;;;;8.52;100.00;99910.47;4987646;28;20042;-54
2023/10/25 01:18:28;;;;;;;14.38;8.63;;;;;;;8.54;100.00;99889.41;4972731;28;20509;-53
2023/10/25 01:20:53;;;;;;;17.95;9.93;;;;;;;8.27;100.00;99842.34;4987294;28;20059;-55
2023/10/25 01:23:19;;;;;;;16.73;9.98;;;;;;;8.59;100.00;99880.44;4973040;28;20027;-55
2023/10/25 01:25:44;;;;;;;17.15;9.35;;;;;;;8.30;100.00;99839.63;4972229;28;20083;-55
2023/10/25 01:28:10;;;;;;;17.45;9.57;;;;;;;8.67;100.00;99898.50;4971319;28;20117;-56
2023/10/25 01:30:35;;;;;;;19.23;9.15;;;;;;;8.21;100.00;99821.59;4988089;28;20098;-54
2023/10/25 01:33:01;;;;;;;17.75;9.43;;;;;;;8.72;100.00;99892.16;4971971;28;20039;-55
2023/10/25 01:35:26;;;;;;;14.48;9.77;;;;;;;8.65;100.00;99900.31;4972947;28;20038;-54
2023/10/25 01:37:52;;;;;;;21.50;9.40;;;;;;;8.55;100.00;99875.38;4972376;28;20081;-55
2023/10/25 01:40:18;;;;;;;14.05;8.18;;;;;;;8.65;100.00;99909.06;4972610;28;20452;-55
2023/10/25 01:42:43;;;;;;;15.13;9.55;;;;;;;7.92;100.00;99769.44;4971371;28;20398;-57
2023/10/25 01:45:10;;;;;;;14.48;8.52;;;;;;;8.22;100.00;99819.81;4972245;28;20467;-54
2023/10/25 01:47:35;;;;;;;13.93;8.80;;;;;;;8.47;100.00;99852.06;4971658;28;20035;-55
2023/10/25 01:50:00;;;;;;;13.95;8.35;;;;;;;8.32;100.00;99831.69;4987796;28;20050;-55
2023/10/25 01:52:26;;;;;;;15.85;9.15;;;;;;;8.10;100.00;99796.69;4972859;28;20074;-56
2023/10/25 01:54:51;;;;;;;19.67;10.20;;;;;;;8.51;100.00;99871.16;4977348;28;20036;-53
2023/10/25 01:57:17;;;;;;;18.48;10.18;;;;;;;8.21;100.00;99820.72;4954552;28;20039;-53
2023/10/25 01:59:43;;;;;;;21.10;9.75;;;;;;;8.44;100.00;99853.03;4957179;28;20037;-57
2023/10/25 02:02:15;;;;;;;16.17;9.20;;;;;;;8.49;100.00;99874.69;4956984;28;20397;-55
2023/10/25 02:04:40;;;;;;;14.88;9.73;;;;;;;8.46;100.00;99866.13;4956807;28;20036;-57
2023/10/25 02:07:05;;;;;;;14.45;9.50;;;;;;;8.40;100.00;99859.34;4955599;28;20422;-56
2023/10/25 02:09:31;;;;;;;17.05;9.93;;;;;;;8.38;100.00;99861.16;4956955;28;20118;-56
2023/10/25 02:11:56;;;;;;;15.25;8.82;;;;;;;8.12;100.00;99821.06;4960378;28;20121;-58
2023/10/25 02:14:22;;;;;;;21.40;9.90;;;;;;;7.91;100.00;99791.31;4968104;28;20105;-56
2023/10/25 02:16:47;;;;;;;15.75;8.90;;;;;;;8.25;100.00;99851.16;4974609;28;20121;-59
2023/10/25 02:19:14;;;;;;;18.63;9.95;;;;;;;8.21;100.00;99842.56;4976602;28;20046;-57
2023/10/25 02:21:39;;;;;;;18.83;10.00;;;;;;;8.20;100.00;99838.22;4995218;28;20033;-58
2023/10/25 02:24:05;;;;;;;17.63;10.05;;;;;;;8.21;100.00;99832.06;4995149;28;20030;-58
2023/10/25 02:26:31;;;;;;;13.98;9.48;;;;;;;8.12;100.00;99814.06;4994931;28;20034;-57
2023/10/25 02:28:59;;;;;;;16.35;10.20;;;;;;;8.34;100.00;99841.22;4995029;28;20510;-54
2023/10/25 02:31:24;;;;;;;17.77;9.20;;;;;;;8.33;100.00;99833.41;4994792;28;20041;-55
2023/10/25 02:33:49;;;;;;;17.90;10.02;;;;;;;8.27;100.00;99823.13;4977528;28;20414;-56
2023/10/25 02:36:15;;;;;;;18.38;8.98;;;;;;;8.28;100.00;99848.47;4994887;28;20080;-54
2023/10/25 02:38:40;;;;;;;15.32;8.68;;;;;;;7.99;100.00;99780.56;4994622;28;20342;-55
2023/10/25 02:41:06;;;;;;;17.60;8.52;;;;;;;8.36;100.00;99839.38;4994604;28;20084;-56
2023/10/25 02:43:32;;;;;;;15.45;9.65;;;;;;;8.36;100.00;99834.13;4978777;28;20034;-55
2023/10/25 02:46:02;;;;;;;14.95;9.82;;;;;;;8.06;100.00;99768.91;4994586;28;20138;-56
2023/10/25 02:48:28;;;;;;;15.30;9.13;;;;;;;8.31;100.00;99807.25;4993377;28;20026;-55
2023/10/25 02:50:53;;;;;;;15.65;8.95;;;;;;;8.41;100.00;99831.31;4993564;28;20041;-56
2023/10/25 02:53:18;;;;;;;17.00;9.00;;;;;;;8.30;100.00;99816.03;4994577;28;20030;-56
2023/10/25 02:55:47;;;;;;;13.88;9.07;;;;;;;8.02;100.00;99767.31;4994406;28;20037;-56
2023/10/25 02:58:13;;;;;;;15.50;8.63;;;;;;;7.82;100.00;99755.00;4994725;28;20034;-56
2023/10/25 03:00:38;;;;;;;15.63;9.57;;;;;;;8.12;100.00;99808.84;4994538;28;20397;-55
2023/10/25 03:03:03;;;;;;;20.13;10.88;;;;;;;7.75;100.00;99764.84;4994459;28;20042;-56
2023/10/25 03:05:29;;;;;;;16.60;9.77;;;;;;;8.05;100.00;99830.09;4994471;28;20030;-54
2023/10/25 03:07:54;;;;;;;19.95;9.68;;;;;;;7.99;100.00;99828.56;4994026;28;20022;-56
2023/10/25 03:10:21;;;;;;;17.77;9.95;;;;;;;7.56;100.00;99755.13;4993437;28;20101;-56
2023/10/25 03:12:46;;;;;;;16.67;10.68;;;;;;;8.03;100.00;99830.16;4993496;28;20042;-56
2023/10/25 03:15:11;;;;;;;16.27;10.75;;;;;;;7.52;100.00;99748.28;4994163;28;20508;-54
2023/10/25 03:17:37;;;;;;;16.67;12.30;;;;;;;7.45;100.00;99755.50;4994284;28;20038;-56
2023/10/25 03:20:04;;;;;;;18.77;11.02;;;;;;;7.51;100.00;99760.53;4994423;28;20105;-58
2023/10/25 03:22:29;;;;;;;19.67;12.05;;;;;;;7.54;100.00;99751.69;4993993;28;20109;-57
2023/10/25 03:24:56;;;;;;;18.23;11.80;;;;;;;7.48;100.00;99751.91;4994048;28;20470;-54
2023/10/25 03:27:21;;;;;;;16.65;12.63;;;;;;;7.48;100.00;99749.31;4992923;28;20100;-52
2023/10/25 03:29:46;;;;;;;22.83;14.18;;;;;;;7.53;100.00;99734.31;4976241;28;20034;-57
2023/10/25 03:32:12;;;;;;;23.38;13.88;;;;;;;7.91;100.00;99817.50;4993079;28;20106;-55
2023/10/25 03:34:41;;;;;;;22.35;14.13;;;;;;;7.85;100.00;99799.44;4997133;28;20050;-54
2023/10/25 03:37:07;;;;;;;23.13;14.27;;;;;;;7.48;100.00;99747.53;4976693;28;20042;-57
2023/10/25 03:39:32;;;;;;;26.88;15.07;;;;;;;7.82;100.00;99789.06;4993773;28;20030;-55
2023/10/25 03:41:58;;;;;;;28.95;15.55;;;;;;;7.78;100.00;99774.34;4993621;28;20048;-58
2023/10/25 03:44:23;;;;;;;27.50;16.23;;;;;;;7.76;100.00;99795.34;4990417;28;20042;-57
2023/10/25 03:46:49;;;;;;;28.88;15.52;;;;;;;7.86;100.00;99804.59;4994268;28;20038;-56
2023/10/25 03:49:15;;;;;;;30.05;16.67;;;;;;;7.79;100.00;99795.25;4993980;28;20474;-56
2023/10/25 03:51:40;;;;;;;25.42;15.77;;;;;;;7.83;100.00;99794.22;4993615;28;20030;-53
2023/10/25 03:54:06;;;;;;;23.23;15.23;;;;;;;7.78;100.00;99787.47;4993548;28;20057;-55
2023/10/25 03:56:31;;;;;;;23.17;15.60;;;;;;;7.41;100.00;99709.44;4993664;28;20030;-58
2023/10/25 03:58:56;;;;;;;28.05;16.08;;;;;;;7.90;100.00;99784.38;4993676;28;20509;-56
2023/10/25 04:01:22;;;;;;;23.98;15.55;;;;;;;7.94;100.00;99791.19;4991513;28;20065;-57
2023/10/25 04:03:47;;;;;;;24.77;15.85;;;;;;;8.02;100.00;99781.28;4993487;28;20382;-55
2023/10/25 04:06:12;;;;;;;27.58;15.57;;;;;;;7.99;100.00;99749.09;4975879;28;20478;-55
2023/10/25 04:08:38;;;;;;;25.85;15.38;;;;;;;7.83;100.00;99727.88;4993507;28;20525;-58
2023/10/25 04:11:03;;;;;;;23.25;15.32;;;;;;;7.75;100.00;99703.75;4975961;28;20121;-55
2023/10/25 04:13:29;;;;;;;23.13;14.23;;;;;;;8.00;100.00;99756.88;4993364;28;20462;-54
2023/10/25 04:15:55;;;;;;;24.35;14.38;;;;;;;8.13;100.00;99765.13;4993173;28;20038;-56
2023/10/25 04:18:21;;;;;;;20.60;14.40;;;;;;;8.01;100.00;99745.50;4980036;28;20055;-55
2023/10/25 04:20:46;;;;;;;22.40;14.50;;;;;;;7.59;100.00;99700.03;4956078;28;20491;-55
2023/10/25 04:23:11;;;;;;;25.77;16.05;;;;;;;7.72;100.00;99717.81;4973467;28;20042;-58
2023/10/25 04:25:37;;;;;;;22.10;14.77;;;;;;;7.67;100.00;99697.97;4974040;28;20093;-52
2023/10/25 04:28:02;;;;;;;25.58;15.18;;;;;;;7.91;100.00;99759.84;4973439;28;20031;-54
2023/10/25 04:30:27;;;;;;;27.30;16.17;;;;;;;7.88;100.00;99739.06;4973816;28;20059;-54
2023/10/25 04:32:53;;;;;;;23.95;14.98;;;;;;;7.97;100.00;99757.00;4940158;28;20405;-55
2023/10/25 04:35:18;;;;;;;25.50;16.38;;;;;;;7.89;100.00;99746.84;4979269;28;20511;-58
2023/10/25 04:37:44;;;;;;;21.60;15.52;;;;;;;7.65;100.00;99700.63;4992144;28;20354;-57
2023/10/25 04:40:09;;;;;;;25.98;16.10;;;;;;;7.93;100.00;99742.34;4992740;28;20514;-59
2023/10/25 04:42:35;;;;;;;19.65;16.08;;;;;;;7.95;100.00;99732.63;4992686;28;20033;-57
2023/10/25 04:45:00;;;;;;;27.52;16.38;;;;;;;7.93;100.00;99739.72;4992552;28;20034;-53
2023/10/25 04:47:25;;;;;;;26.90;16.15;;;;;;;7.73;100.00;99701.19;4992709;28;20037;-55
2023/10/25 04:49:51;;;;;;;27.90;16.27;;;;;;;7.93;100.00;99732.72;4992577;28;20034;-53
2023/10/25 04:52:16;;;;;;;27.85;16.05;;;;;;;7.99;100.00;99721.13;4992548;28;20042;-53
2023/10/25 04:54:44;;;;;;;28.25;17.17;;;;;;;8.03;100.00;99719.22;4992956;28;20034;-53
2023/10/25 04:57:10;;;;;;;24.98;16.80;;;;;;;8.03;100.00;99709.59;4992056;28;20031;-57
2023/10/25 04:59:36;;;;;;;22.38;16.77;;;;;;;8.05;100.00;99702.56;4976630;28;20050;-56
2023/10/25 05:02:01;;;;;;;21.30;15.60;;;;;;;8.07;100.00;99708.56;4992652;28;20034;-56
2023/10/25 05:04:27;;;;;;;22.08;15.93;;;;;;;8.08;100.00;99701.56;4992274;28;20088;-56
2023/10/25 05:06:53;;;;;;;27.42;16.25;;;;;;;8.03;100.00;99711.34;4992000;28;20161;-54
2023/10/25 05:09:18;;;;;;;28.02;16.23;;;;;;;7.72;100.00;99654.97;4991410;28;20042;-54
2023/10/25 05:11:54;;;;;;;23.95;15.13;;;;;;;7.98;100.00;99690.59;4974949;28;20038;-55
2023/10/25 05:14:20;;;;;;;22.35;15.10;;;;;;;8.11;100.00;99712.78;4992472;28;20125;-54
2023/10/25 05:16:46;;;;;;;26.50;15.90;;;;;;;8.05;100.00;99705.16;4992235;28;20460;-52
2023/10/25 05:19:11;;;;;;;22.98;16.65;;;;;;;8.03;100.00;99693.88;4974091;28;20463;-54
2023/10/25 05:21:39;;;;;;;24.35;16.15;;;;;;;7.50;100.00;99601.69;4991459;28;20133;-56
2023/10/25 05:24:07;;;;;;;22.60;15.77;;;;;;;8.03;100.00;99701.75;4974073;28;20085;-55
2023/10/25 05:26:32;;;;;;;26.73;16.33;;;;;;;8.01;100.00;99694.84;4989893;28;20041;-55
2023/10/25 05:28:58;;;;;;;24.00;15.80;;;;;;;7.63;100.00;99621.25;4991344;28;20468;-57
2023/10/25 05:31:26;;;;;;;25.60;16.25;;;;;;;8.19;100.00;99708.09;4974038;28;20034;-55
2023/10/25 05:33:52;;;;;;;25.45;16.00;;;;;;;7.98;100.00;99682.72;4993871;28;20069;-57
2023/10/25 05:36:18;;;;;;;25.17;16.70;;;;;;;8.09;100.00;99700.63;4993428;28;20070;-57
2023/10/25 05:38:43;;;;;;;26.33;14.73;;;;;;;8.13;100.00;99704.84;4994463;28;20402;-55
2023/10/25 05:41:12;;;;;;;24.63;16.10;;;;;;;8.15;100.00;99690.75;4995004;28;20030;-56
2023/10/25 05:43:38;;;;;;;25.80;15.77;;;;;;;8.16;100.00;99676.75;4979523;28;20088;-56
2023/10/25 05:46:04;;;;;;;19.20;14.38;;;;;;;8.23;100.00;99678.19;4977174;28;20049;-57
2023/10/25 05:48:29;;;;;;;20.05;13.95;;;;;;;8.17;100.00;99665.34;4994099;28;20039;-56
2023/10/25 05:50:55;;;;;;;19.15;14.10;;;;;;;8.31;100.00;99689.28;4992134;28;20124;-54
2023/10/25 05:53:21;;;;;;;27.00;14.70;;;;;;;8.30;100.00;99673.59;4973350;28;20031;-53
2023/10/25 05:55:46;;;;;;;23.17;14.68;;;;;;;8.12;100.00;99629.75;4968605;28;20026;-54
2023/10/25 05:58:12;;;;;;;17.20;13.70;;;;;;;8.39;100.00;99673.22;4993709;28;20046;-54
2023/10/25 06:00:39;;;;;;;23.88;15.52;;;;;;;8.04;100.00;99609.13;4994163;28;20034;-53
2023/10/25 06:03:05;;;;;;;21.80;14.30;;;;;;;8.07;100.00;99609.00;4993219;28;20026;-55
2023/10/25 06:05:36;;;;;;;19.98;13.32;;;;;;;8.28;100.00;99633.47;4994185;28;20035;-53
2023/10/25 06:08:02;;;;;;;21.45;12.75;;;;;;;8.52;100.00;99670.94;4994091;28;20022;-54
2023/10/25 06:10:27;;;;;;;22.25;12.40;;;;;;;8.52;100.00;99663.06;4993988;28;20044;-55
2023/10/25 06:12:53;;;;;;;16.20;12.07;;;;;;;8.19;100.00;99602.38;4976464;28;20038;-56
2023/10/25 06:15:18;;;;;;;23.65;12.25;;;;;;;8.23;100.00;99593.47;4994363;28;20482;-55
2023/10/25 06:17:43;;;;;;;21.48;12.82;;;;;;;8.57;100.00;99653.22;4993804;28;20042;-57
2023/10/25 06:20:10;;;;;;;17.35;10.95;;;;;;;8.57;100.00;99653.22;4952676;28;1199098;-55
2023/10/25 06:22:35;;;;;;;21.48;10.95;;;;;;;8.69;100.00;99664.06;4994876;28;20121;-54
2023/10/25 06:25:01;;;;;;;16.90;11.15;;;;;;;8.56;100.00;99646.25;4995143;28;20108;-57
2023/10/25 06:27:26;;;;;;;15.57;11.27;;;;;;;8.47;100.00;99640.50;4977294;28;20470;-57
2023/10/25 06:29:51;;;;;;;24.05;11.57;;;;;;;8.53;100.00;99649.00;4994629;28;20039;-55
2023/10/25 06:32:17;;;;;;;18.98;10.60;;;;;;;8.33;100.00;99586.94;4994414;28;20049;-56
2023/10/25 06:34:42;;;;;;;16.20;11.55;;;;;;;8.57;100.00;99635.72;4994772;28;20038;-53
2023/10/25 06:37:08;;;;;;;16.67;10.73;;;;;;;8.14;100.00;99559.78;4995119;28;20135;-56
2023/10/25 06:39:33;;;;;;;20.10;12.45;;;;;;;8.53;100.00;99622.78;4995111;28;20548;-56
2023/10/25 06:41:59;;;;;;;17.65;11.30;;;;;;;8.56;100.00;99626.13;4994869;28;20070;-55
2023/10/25 06:44:25;;;;;;;17.02;11.77;;;;;;;8.58;100.00;99624.28;4994267;28;20038;-56
2023/10/25 06:46:51;;;;;;;16.52;11.50;;;;;;;8.48;100.00;99602.88;4994427;28;20038;-54
2023/10/25 06:49:17;;;;;;;17.63;11.02;;;;;;;8.58;100.00;99598.06;4994603;28;20041;-55
2023/10/25 06:51:43;;;;;;;18.15;11.00;;;;;;;8.56;100.00;99578.06;4994882;28;20038;-58
2023/10/25 06:54:09;;;;;;;19.33;10.82;;;;;;;8.37;100.00;99544.81;4976878;28;20445;-56
2023/10/25 06:56:35;;;;;;;20.88;11.18;;;;;;;8.60;100.00;99590.13;4994300;28;20042;-57
2023/10/25 06:59:01;;;;;;;20.38;11.35;;;;;;;8.43;100.00;99544.50;4994369;28;20121;-54
2023/10/25 07:01:31;;;;;;;16.90;11.32;;;;;;;8.75;100.00;99598.19;4994254;28;20138;-53
2023/10/25 07:03:58;;;;;;;18.20;10.88;;;;;;;8.49;100.00;99531.13;4993344;28;20106;-55
2023/10/25 07:06:24;;;;;;;14.45;11.27;;;;;;;8.72;100.00;99600.09;4994246;28;20126;-56
2023/10/25 07:08:49;;;;;;;16.08;11.00;;;;;;;8.85;100.00;99602.09;4978559;28;20110;-54
2023/10/25 07:11:15;;;;;;;17.17;10.63;;;;;;;8.64;100.00;99552.38;4994252;28;20445;-57
2023/10/25 07:13:40;;;;;;;14.40;10.65;;;;;;;8.53;100.00;99533.63;4994285;28;20482;-55
2023/10/25 07:16:06;;;;;;;19.63;11.18;;;;;;;8.80;100.00;99597.97;4993756;28;20053;-57
2023/10/25 07:18:32;;;;;;;24.40;11.40;;;;;;;8.81;100.00;99597.94;4994335;28;20042;-55
2023/10/25 07:20:58;;;;;;;18.38;11.13;;;;;;;8.73;100.00;99578.16;4993915;28;20048;-54
2023/10/25 07:23:23;;;;;;;17.38;10.63;;;;;;;8.86;100.00;99595.06;4992561;28;20057;-51
2023/10/25 07:25:49;;;;;;;18.65;10.20;;;;;;;8.89;100.00;99590.56;4975132;28;20041;-56
2023/10/25 07:28:14;;;;;;;19.05;10.32;;;;;;;8.90;100.00;99586.97;4993812;28;20494;-52
2023/10/25 07:30:40;;;;;;;14.75;10.45;;;;;;;8.29;100.00;99473.47;4992042;28;20031;-55
2023/10/25 07:33:06;;;;;;;16.30;10.02;;;;;;;9.11;100.00;99590.41;4993874;28;20036;-54
2023/10/25 07:35:31;;;;;;;12.35;10.18;;;;;;;8.77;100.00;99530.75;4993889;28;20529;-54
2023/10/25 07:37:56;;;;;;;15.57;10.57;;;;;;;8.79;100.00;99534.16;4993411;28;20041;-53
2023/10/25 07:40:22;;;;;;;12.18;8.77;;;;;;;9.13;100.00;99585.97;4993837;28;20031;-54
2023/10/25 07:42:47;;;;;;;15.82;9.80;;;;;;;9.15;100.00;99586.72;4991113;28;20026;-57
2023/10/25 07:45:13;;;;;;;15.80;9.27;;;;;;;9.18;100.00;99591.84;4993293;28;20474;-56
2023/10/25 07:47:38;;;;;;;10.90;9.25;;;;;;;9.21;100.00;99578.56;4993478;28;20054;-51
2023/10/25 07:50:05;;;;;;;15.63;9.60;;;;;;;8.56;100.00;99454.81;4993176;28;20374;-56
2023/10/25 07:52:31;;;;;;;10.95;8.50;;;;;;;9.16;100.00;99562.19;4993630;28;20038;-54
2023/10/25 07:54:56;;;;;;;14.30;9.50;;;;;;;9.27;100.00;99566.94;4992758;28;20470;-54
2023/10/25 07:57:23;;;;;;;15.50;9.80;;;;;;;8.90;100.00;99496.94;4993136;28;20041;-56
2023/10/25 07:59:48;;;;;;;12.32;9.55;;;;;;;9.29;100.00;99565.94;4991741;28;20045;-55
2023/10/25 08:02:14;;;;;;;12.27;8.35;;;;;;;8.96;100.00;99507.16;4993463;28;20038;-56
2023/10/25 08:04:41;;;;;;;12.68;8.77;;;;;;;9.31;100.00;99548.31;4959923;28;20161;-56
2023/10/25 08:07:06;;;;;;;12.00;8.18;;;;;;;9.38;100.00;99560.25;4993489;28;20031;-55
2023/10/25 08:09:31;;;;;;;12.25;8.13;;;;;;;9.38;100.00;99555.00;4975728;28;20043;-51
2023/10/25 08:11:57;;;;;;;14.15;8.07;;;;;;;9.13;100.00;99512.44;4975782;28;20026;-55
2023/10/25 08:14:22;;;;;;;12.00;8.00;;;;;;;9.40;100.00;99552.28;4992872;28;20051;-55
2023/10/25 08:16:47;;;;;;;11.30;8.10;;;;;;;9.19;100.00;99522.66;4992696;28;20045;-53
2023/10/25 08:19:15;;;;;;;14.18;6.97;;;;;;;8.94;100.00;99465.22;4992856;28;20433;-55
2023/10/25 08:21:40;;;;;;;13.52;8.00;;;;;;;9.11;100.00;99484.59;4991687;28;20072;-56
2023/10/25 08:24:06;;;;;;;14.10;7.90;;;;;;;9.29;100.00;99525.69;4993093;28;20480;-54
2023/10/25 08:26:37;;;;;;;12.00;6.88;;;;;;;9.38;100.00;99538.38;4991483;28;20447;-54
2023/10/25 08:29:02;;;;;;;9.60;6.65;;;;;;;9.55;100.00;99544.53;4992606;28;20027;-52
2023/10/25 08:31:28;;;;;;;11.77;7.05;;;;;;;9.57;100.00;99550.53;4992768;28;20072;-52
2023/10/25 08:33:53;;;;;;;10.63;6.80;;;;;;;9.58;100.00;99546.13;4992657;28;20042;-55
2023/10/25 08:36:18;;;;;;;9.18;6.53;;;;;;;9.63;100.00;99553.81;4992713;28;20489;-52
2023/10/25 08:38:44;;;;;;;10.68;6.80;;;;;;;9.29;100.00;99488.91;4992462;28;20038;-51
2023/10/25 08:41:09;;;;;;;8.43;6.90;;;;;;;9.63;100.00;99544.97;4992563;28;20030;-54
2023/10/25 08:43:36;;;;;;;11.38;6.07;;;;;;;9.56;100.00;99514.72;4991562;28;20030;-52
2023/10/25 08:46:03;;;;;;;11.15;6.28;;;;;;;9.70;100.00;99542.91;4992741;28;20490;-54
2023/10/25 08:48:28;;;;;;;10.65;6.57;;;;;;;9.70;100.00;99542.06;4992760;28;20057;-53
2023/10/25 08:50:55;;;;;;;7.85;6.25;;;;;;;9.32;100.00;99471.25;4975561;28;20034;-52
2023/10/25 08:53:22;;;;;;;14.40;6.38;;;;;;;9.62;100.00;99526.69;4973784;28;20405;-56
2023/10/25 08:55:50;;;;;;;9.30;6.57;;;;;;;9.71;100.00;99538.53;4988895;28;20538;-56
2023/10/25 08:58:17;;;;;;;9.82;6.18;;;;;;;9.71;100.00;99535.88;4991762;28;20027;-55
2023/10/25 09:00:42;;;;;;;9.15;5.80;;;;;;;9.38;100.00;99464.84;4992361;28;20034;-56
2023/10/25 09:03:07;;;;;;;14.43;6.50;;;;;;;9.43;100.00;99479.44;4992295;28;20034;-53
2023/10/25 09:05:43;;;;;;;14.05;7.10;;;;;;;9.78;100.00;99529.41;4992560;28;20034;-58
2023/10/25 09:08:15;;;;;;;11.55;6.95;;;;;;;9.82;100.00;99523.91;4991427;28;20037;-52
2023/10/25 09:10:40;;;;;;;10.40;6.60;;;;;;;9.86;100.00;99519.38;4993017;28;20069;-55
2023/10/25 09:13:16;;;;;;;8.10;6.47;;;;;;;9.48;100.00;99452.97;4983521;28;20070;-57
2023/10/25 09:15:41;;;;;;;11.80;6.30;;;;;;;9.46;100.00;99441.66;4990652;28;20035;-55
2023/10/25 09:18:06;;;;;;;7.78;6.07;;;;;;;9.74;100.00;99514.72;4991602;28;20112;-55
2023/10/25 09:20:32;;;;;;;10.90;6.15;;;;;;;9.74;100.00;99505.06;4992117;28;20437;-56
2023/10/25 09:23:12;;;;;;;13.82;6.75;;;;;;;9.78;100.00;99503.13;4990217;28;20082;-57
2023/10/25 09:25:38;;;;;;;9.27;6.37;;;;;;;9.68;100.00;99478.25;4991796;28;20062;-54
2023/10/25 09:28:04;;;;;;;8.95;5.90;;;;;;;9.81;100.00;99495.06;4991639;28;20041;-52
2023/10/25 09:30:30;;;;;;;12.25;6.78;;;;;;;9.78;100.00;99488.19;4974597;28;20031;-54
2023/10/25 09:32:57;;;;;;;9.38;6.32;;;;;;;9.83;100.00;99486.22;4989632;28;20389;-56
2023/10/25 09:35:22;;;;;;;12.23;6.80;;;;;;;9.80;100.00;99482.88;4991930;28;20035;-54
2023/10/25 09:37:49;;;;;;;10.57;6.65;;;;;;;9.87;100.00;99489.50;4990890;28;20135;-56
2023/10/25 09:40:14;;;;;;;11.10;6.20;;;;;;;9.80;100.00;99465.34;4990374;28;20039;-57
2023/10/25 09:42:45;;;;;;;10.18;7.13;;;;;;;9.88;100.00;99468.41;4989995;28;20026;-57
2023/10/25 09:45:12;;;;;;;10.45;6.75;;;;;;;9.81;100.00;99453.88;4992370;28;20125;-55
2023/10/25 09:47:41;;;;;;;10.02;6.88;;;;;;;9.63;100.00;99409.31;4991179;28;20049;-56
2023/10/25 09:50:10;;;;;;;12.68;7.70;;;;;;;9.69;100.00;99403.75;4959003;28;20074;-57
2023/10/25 09:52:38;;;;;;;9.88;7.10;;;;;;;9.93;100.00;99458.50;4974429;28;20453;-56
2023/10/25 09:55:10;;;;;;;11.25;7.00;;;;;;;9.92;100.00;99459.47;4992201;28;20126;-55
2023/10/25 09:57:36;;;;;;;10.68;7.07;;;;;;;9.93;100.00;99453.25;4970130;28;20031;-57
2023/10/25 10:00:01;;;;;;;12.90;7.50;;;;;;;9.27;100.00;99344.59;4972905;28;20046;-58
2023/10/25 10:02:49;;;;;;;12.15;7.25;;;;;;;10.04;100.00;99447.47;4973145;28;20043;-56
2023/10/25 10:06:07;;;;;;;10.65;7.45;;;;;;;9.86;100.00;99441.38;4971638;28;20031;-56
2023/10/25 10:08:41;;;;;;;11.63;7.72;;;;;;;9.84;100.00;99434.47;4963300;28;20097;-56
2023/10/25 10:11:13;;;;;;;15.13;7.95;;;;;;;9.62;100.00;99387.44;4968036;28;20386;-56
2023/10/25 10:13:39;;;;;;;12.18;7.53;;;;;;;9.92;100.00;99412.16;4987987;28;20105;-55
2023/10/25 10:16:09;;;;;;;12.88;7.82;;;;;;;9.57;100.00;99360.56;4991683;28;20133;-53
2023/10/25 10:18:35;;;;;;;12.45;8.07;;;;;;;9.96;100.00;99425.97;4992673;28;20046;-56
2023/10/25 10:21:03;;;;;;;12.63;7.85;;;;;;;10.02;100.00;99425.63;4995166;28;20084;-54
2023/10/25 10:23:38;;;;;;;13.98;8.63;;;;;;;10.12;100.00;99417.22;4977864;28;20081;-57
2023/10/25 10:26:04;;;;;;;11.02;8.13;;;;;;;9.67;100.00;99358.28;4995238;28;20031;-56
2023/10/25 10:28:43;;;;;;;15.85;9.02;;;;;;;10.01;100.00;99403.75;4995172;28;20034;-53
2023/10/25 10:31:10;;;;;;;9.10;8.05;;;;;;;9.89;100.00;99391.28;4963493;28;20431;-55
2023/10/25 10:34:02;;;;;;;14.98;9.35;;;;;;;10.04;100.00;99411.47;4995041;28;20113;-57
2023/10/25 10:36:31;;;;;;;12.50;9.23;;;;;;;9.69;100.00;99352.03;4990510;28;20049;-56
2023/10/25 10:39:12;;;;;;;13.50;8.38;;;;;;;9.99;100.00;99407.41;4989457;28;20540;-56
2023/10/25 10:41:38;;;;;;;;;;;;;;;10.01;100.00;99408.19;4995247;28;20034;-56
2023/10/25 10:44:03;;;;;;;14.57;8.48;;;;;;;10.00;100.00;99394.19;4994426;28;19914;-55
2023/10/25 10:46:30;;;;;;;18.67;9.60;;;;;;;9.67;100.00;99324.16;4991367;28;20117;-57
2023/10/25 10:49:00;;;;;;;12.20;9.70;;;;;;;9.70;100.00;99345.84;4992027;28;20509;-52
2023/10/25 10:51:27;;;;;;;11.30;9.37;;;;;;;9.99;100.00;99394.25;4994514;28;20442;-55
2023/10/25 10:53:52;;;;;;;13.20;10.00;;;;;;;9.96;100.00;99382.13;4977061;28;20026;-57
2023/10/25 10:56:18;;;;;;;13.05;9.80;;;;;;;9.68;100.00;99321.44;4993837;28;20125;-57
2023/10/25 10:58:43;;;;;;;11.15;9.60;;;;;;;10.03;100.00;99386.16;4991408;28;20072;-58
2023/10/25 11:01:09;;;;;;;12.52;9.82;;;;;;;9.84;100.00;99347.75;4974835;28;20038;-56
2023/10/25 11:03:36;;;;;;;12.15;9.95;;;;;;;9.99;100.00;99367.97;4994441;28;20030;-55
2023/10/25 11:06:03;;;;;;;12.65;9.57;;;;;;;10.02;100.00;99373.06;4991494;28;20104;-56
2023/10/25 11:08:29;;;;;;;18.15;10.57;;;;;;;9.99;100.00;99376.72;4977198;28;20027;-54
2023/10/25 11:10:54;;;;;;;17.67;11.18;;;;;;;9.61;100.00;99305.16;4976970;28;20046;-59
2023/10/25 11:13:20;;;;;;;12.73;10.50;;;;;;;9.62;100.00;99308.63;4960592;28;20398;-54
2023/10/25 11:15:45;;;;;;;16.95;10.98;;;;;;;9.93;100.00;99363.88;4976886;28;20129;-59
2023/10/25 11:18:10;;;;;;;16.42;10.50;;;;;;;9.98;100.00;99374.19;4994749;28;20117;-58